Palo Alto, CA

2:19 AM PDT on July 27, 2016 (GMT -0700)
Palo Alto Of Santa Clara County | | Change Station

Elev 7 ft 37.46 °N, 122.12 °W | Updated 5 hours ago

Clear
Clear
72 °F
Feels Like 72 °F
N
6
Wind Variable Wind from NW

Today
High -- | Low -- °F
--% Chance of Precip.
Yesterday
High -- | Low -- °F
Precip. -- in
Pressure 29.84 in
Visibility 10.0 miles
Clouds Clear
Dew Point 59 °F
Humidity 64%
Rainfall 0.00 in
Snow Depth Not available.
6:09 AM 8:20 PM
Last Quarter, 45% visible
METAR KPAO 270347Z 31005KT 10SM SKC 22/15 A2984 RMK LAST
Pressure 29.84 in
Visibility 10.0 miles
Clouds Clear
Dew Point 59 °F
Humidity 64%
Rainfall 0.00 in
Snow Depth Not available.
6:09 AM 8:20 PM
Last Quarter, 45% visible
METAR KPAO 270347Z 31005KT 10SM SKC 22/15 A2984 RMK LAST

10-Day Weather Forecast

Almanac

Astronomy

Jul. 27, 2016 Rise Set
Actual Time
Civil Twilight
Nautical Twilight
Astronomical Twilight
Moon
Length of Visible Light
Length of Day
Tomorrow will be .
, % of the Moon is Illuminated

Today's Extremes

State Highs State Lows

Community

WunderPhotos

Upload Photos

1,927,818 photos uploaded!

WunderBlog® & News

Nearby

Air Quality

  Air Quality AQ Index Pollutant
Not available.

Snow Depth

Station Depth Elevation

Earthquake Activity

City Distance Mag. Time & Date
Minimum magnitude displayed is 2.5.

Coastal Water Temperatures

Place Temperature

Stations

Nearby Weather Stations

Station Location Temp. Windchill Dew Point Humidity Wind Precip. Elev Updated Type
                   

Watches & Warnings

There are currently no watches in effect.